createdAt,value
2022-12-25T00:02:25.840Z,6.20
2022-12-25T00:04:53.782Z,6.20
2022-12-25T00:07:21.710Z,6.00
2022-12-25T00:09:49.595Z,5.80
2022-12-25T00:12:19.222Z,5.70
2022-12-25T00:14:47.415Z,5.70
2022-12-25T00:17:15.929Z,5.80
2022-12-25T00:19:43.912Z,5.80
2022-12-25T00:22:11.811Z,5.90
2022-12-25T00:24:39.921Z,5.90
2022-12-25T00:27:07.840Z,6.00
2022-12-25T00:29:37.842Z,6.00
2022-12-25T00:32:06.192Z,6.10
2022-12-25T00:34:34.269Z,6.00
2022-12-25T00:37:02.172Z,6.10
2022-12-25T00:39:30.073Z,6.10
2022-12-25T00:42:15.402Z,6.00
2022-12-25T00:44:44.644Z,5.90
2022-12-25T00:47:12.648Z,5.80
2022-12-25T00:49:40.627Z,5.80
2022-12-25T00:52:09.116Z,5.70
2022-12-25T00:54:38.005Z,5.80
2022-12-25T00:57:05.979Z,5.90
2022-12-25T00:59:35.136Z,5.90
2022-12-25T01:02:18.616Z,5.90
2022-12-25T01:04:46.604Z,5.80
2022-12-25T01:07:16.646Z,5.80
2022-12-25T01:10:02.656Z,5.90
2022-12-25T01:12:31.595Z,5.90
2022-12-25T01:14:59.927Z,5.70
2022-12-25T01:17:29.155Z,5.70
2022-12-25T01:19:57.099Z,5.70
2022-12-25T01:22:25.004Z,5.70
2022-12-25T01:24:52.943Z,5.70
2022-12-25T01:27:20.845Z,5.70
2022-12-25T01:29:48.766Z,5.80
2022-12-25T01:32:16.765Z,5.80
2022-12-25T01:34:49.342Z,5.80
2022-12-25T01:37:21.791Z,5.70
2022-12-25T01:39:49.632Z,5.70
2022-12-25T01:42:19.854Z,5.80
2022-12-25T01:45:35.576Z,5.70
2022-12-25T01:48:09.544Z,5.70
2022-12-25T01:50:44.135Z,5.70
2022-12-25T01:53:12.915Z,5.70
2022-12-25T01:55:44.260Z,5.60
2022-12-25T01:58:12.533Z,5.70
2022-12-25T02:00:40.503Z,5.70
2022-12-25T02:03:08.705Z,5.80
2022-12-25T02:05:38.173Z,5.50
2022-12-25T02:08:12.066Z,5.50
2022-12-25T02:10:40.050Z,5.50
2022-12-25T02:13:08.995Z,5.50
2022-12-25T02:15:50.388Z,5.50
2022-12-25T02:18:32.660Z,5.60
2022-12-25T02:21:23.847Z,5.60
2022-12-25T02:24:31.290Z,5.50
2022-12-25T02:27:19.572Z,5.50
2022-12-25T02:30:03.073Z,5.50
2022-12-25T02:32:41.192Z,5.50
2022-12-25T02:35:15.316Z,5.40
2022-12-25T02:37:52.939Z,5.50
2022-12-25T02:40:28.068Z,5.40
2022-12-25T02:43:18.878Z,5.30
2022-12-25T02:46:13.071Z,5.40
2022-12-25T02:49:05.000Z,5.50
2022-12-25T02:51:56.815Z,5.50
2022-12-25T02:54:51.202Z,5.50
2022-12-25T02:57:43.355Z,5.50
2022-12-25T03:00:31.484Z,5.50
2022-12-25T03:03:24.275Z,5.50
2022-12-25T03:06:15.824Z,5.50
2022-12-25T03:08:48.369Z,5.50
2022-12-25T03:11:33.503Z,5.60
2022-12-25T03:14:20.061Z,5.60
2022-12-25T03:16:51.379Z,5.70
2022-12-25T03:19:43.537Z,5.80
2022-12-25T03:22:38.193Z,5.90
2022-12-25T03:25:25.026Z,6.00
2022-12-25T03:27:56.829Z,6.10
2022-12-25T03:30:48.075Z,6.20
2022-12-25T03:33:44.693Z,6.30
2022-12-25T03:36:22.845Z,6.30
2022-12-25T03:39:23.574Z,6.40
2022-12-25T03:42:16.999Z,6.40
2022-12-25T03:45:17.201Z,6.50
2022-12-25T03:48:07.289Z,6.40
2022-12-25T03:50:57.667Z,6.40
2022-12-25T03:53:52.047Z,6.60
2022-12-25T03:56:38.996Z,6.70
2022-12-25T03:59:24.597Z,6.70
2022-12-25T04:02:10.889Z,6.70
2022-12-25T04:04:57.106Z,6.80
2022-12-25T04:07:57.722Z,7.00
2022-12-25T04:10:44.566Z,7.10
2022-12-25T04:13:29.929Z,7.20
2022-12-25T04:16:15.521Z,7.30
2022-12-25T04:19:01.036Z,7.20
2022-12-25T04:21:46.635Z,7.20
2022-12-25T04:24:32.160Z,7.20
2022-12-25T04:27:19.051Z,7.20
2022-12-25T04:30:04.764Z,7.30
2022-12-25T04:32:50.279Z,7.30
2022-12-25T04:35:35.708Z,7.40
2022-12-25T04:38:03.722Z,7.40
2022-12-25T04:40:31.689Z,7.40
2022-12-25T04:43:00.852Z,7.40
2022-12-25T04:45:28.740Z,7.40
2022-12-25T04:47:56.718Z,7.40
2022-12-25T04:50:24.595Z,7.40
2022-12-25T04:52:52.494Z,7.40
2022-12-25T04:55:20.432Z,7.50
2022-12-25T04:57:48.345Z,7.50
2022-12-25T05:00:18.974Z,7.50
2022-12-25T05:02:46.996Z,7.50
2022-12-25T05:05:15.207Z,7.50
2022-12-25T05:07:43.191Z,7.40
2022-12-25T05:10:12.244Z,7.40
2022-12-25T05:12:40.163Z,7.40
2022-12-25T05:15:09.146Z,7.40
2022-12-25T05:17:38.427Z,7.40
2022-12-25T05:20:07.946Z,7.40
2022-12-25T05:22:35.830Z,7.50
2022-12-25T05:25:03.735Z,7.50
2022-12-25T05:27:31.592Z,7.60
2022-12-25T05:29:59.490Z,7.60
2022-12-25T05:32:27.354Z,7.60
2022-12-25T05:34:56.675Z,7.60
2022-12-25T05:37:24.582Z,7.60
2022-12-25T05:39:52.584Z,7.50
2022-12-25T05:42:20.535Z,7.50
2022-12-25T05:44:48.410Z,7.50
2022-12-25T05:47:16.288Z,7.50
2022-12-25T05:49:44.198Z,7.50
2022-12-25T05:52:13.710Z,7.50
2022-12-25T05:54:41.832Z,7.50
2022-12-25T05:57:09.742Z,7.60
2022-12-25T05:59:37.627Z,7.50
2022-12-25T06:02:05.597Z,7.60
2022-12-25T06:04:33.667Z,7.60
2022-12-25T06:07:01.540Z,7.60
2022-12-25T06:09:30.845Z,7.60
2022-12-25T06:11:58.733Z,7.50
2022-12-25T06:14:26.624Z,7.50
2022-12-25T06:16:55.087Z,7.50
2022-12-25T06:19:23.821Z,7.60
2022-12-25T06:21:54.661Z,7.60
2022-12-25T06:24:23.421Z,7.50
2022-12-25T06:26:52.796Z,7.50
2022-12-25T06:29:20.754Z,7.60
2022-12-25T06:31:48.748Z,7.60
2022-12-25T06:34:17.130Z,7.60
2022-12-25T06:36:45.055Z,7.70
2022-12-25T06:39:12.938Z,7.70
2022-12-25T06:41:40.824Z,7.60
2022-12-25T06:44:10.412Z,7.60
2022-12-25T06:46:38.327Z,7.60
2022-12-25T06:49:06.775Z,7.60
2022-12-25T06:51:35.225Z,7.60
2022-12-25T06:54:04.455Z,7.50
2022-12-25T06:56:34.317Z,7.50
2022-12-25T06:59:07.103Z,7.50
2022-12-25T07:01:40.869Z,7.50
2022-12-25T07:04:16.531Z,7.50
2022-12-25T07:06:44.412Z,7.50
2022-12-25T07:09:12.294Z,7.50
2022-12-25T07:11:40.287Z,7.60
2022-12-25T07:14:08.173Z,7.60
2022-12-25T07:16:37.481Z,7.60
2022-12-25T07:19:05.437Z,7.60
2022-12-25T07:21:33.290Z,7.60
2022-12-25T07:24:01.343Z,7.70
2022-12-25T07:26:29.251Z,7.70
2022-12-25T07:28:58.043Z,7.70
2022-12-25T07:31:26.097Z,7.70
2022-12-25T07:33:55.637Z,7.70
2022-12-25T07:36:23.847Z,7.70
2022-12-25T07:38:52.070Z,7.70
2022-12-25T07:41:19.949Z,7.70
2022-12-25T07:43:52.062Z,7.80
2022-12-25T07:46:21.676Z,7.80
2022-12-25T07:48:49.742Z,7.80
2022-12-25T07:51:18.990Z,7.80
2022-12-25T07:53:46.942Z,7.90
2022-12-25T07:56:17.825Z,7.90
2022-12-25T07:58:46.650Z,7.90
2022-12-25T08:01:18.126Z,7.90
2022-12-25T08:03:51.143Z,7.90
2022-12-25T08:06:22.284Z,8.00
2022-12-25T08:08:50.432Z,8.00
2022-12-25T08:11:18.395Z,8.00
2022-12-25T08:13:46.269Z,8.00
2022-12-25T08:16:14.452Z,8.00
2022-12-25T08:18:43.649Z,8.10
2022-12-25T08:21:14.247Z,8.10
2022-12-25T08:23:46.272Z,8.10
2022-12-25T08:26:17.473Z,8.10
2022-12-25T08:28:46.401Z,8.10
2022-12-25T08:31:18.444Z,8.10
2022-12-25T08:33:48.406Z,8.10
2022-12-25T08:36:18.018Z,8.10
2022-12-25T08:38:47.959Z,8.10
2022-12-25T08:41:17.451Z,8.20
2022-12-25T08:43:45.936Z,8.20
2022-12-25T08:46:14.517Z,8.20
2022-12-25T08:48:46.727Z,8.30
2022-12-25T08:51:18.029Z,8.30
2022-12-25T08:53:49.837Z,8.30
2022-12-25T08:56:19.520Z,8.30
2022-12-25T08:58:47.858Z,8.40
2022-12-25T09:01:16.104Z,8.40
2022-12-25T09:03:44.285Z,8.40
2022-12-25T09:06:15.494Z,8.40
2022-12-25T09:08:48.510Z,8.40
2022-12-25T09:11:20.604Z,8.40
2022-12-25T09:13:49.697Z,8.40
2022-12-25T09:16:21.027Z,8.50
2022-12-25T09:18:49.960Z,8.50
2022-12-25T09:21:18.984Z,8.50
2022-12-25T09:23:46.904Z,8.50
2022-12-25T09:26:19.293Z,8.50
2022-12-25T09:28:51.960Z,8.60
2022-12-25T09:31:21.837Z,8.60
2022-12-25T09:33:50.173Z,8.60
2022-12-25T09:36:18.159Z,8.70
2022-12-25T09:38:46.080Z,8.70
2022-12-25T09:41:23.950Z,8.70
2022-12-25T09:43:56.247Z,8.70
2022-12-25T09:46:37.133Z,8.80
2022-12-25T09:49:16.126Z,8.80
2022-12-25T09:51:48.105Z,8.80
2022-12-25T09:54:23.136Z,8.80
2022-12-25T09:56:53.053Z,8.80
2022-12-25T09:59:27.147Z,8.80
2022-12-25T10:02:37.556Z,8.80
2022-12-25T10:05:36.324Z,8.90
2022-12-25T10:08:22.087Z,8.90
2022-12-25T10:10:57.403Z,8.90
2022-12-25T10:13:49.936Z,9.00
2022-12-25T10:16:32.039Z,8.90
2022-12-25T10:19:18.555Z,9.00
2022-12-25T10:21:48.239Z,9.10
2022-12-25T10:24:32.891Z,9.00
2022-12-25T10:27:05.330Z,9.00
2022-12-25T10:29:38.469Z,9.10
2022-12-25T10:32:06.660Z,9.00
2022-12-25T10:34:36.057Z,9.10
2022-12-25T10:37:04.016Z,9.10
2022-12-25T10:39:31.919Z,9.20
2022-12-25T10:42:24.891Z,9.20
2022-12-25T10:45:00.089Z,9.20
2022-12-25T10:47:31.700Z,9.20
2022-12-25T10:50:01.598Z,9.20
2022-12-25T10:52:30.439Z,9.30
2022-12-25T10:54:58.523Z,9.40
2022-12-25T10:57:28.054Z,9.60
2022-12-25T10:59:58.417Z,9.60
2022-12-25T11:02:29.080Z,9.50
2022-12-25T11:05:03.913Z,9.50
2022-12-25T11:07:34.195Z,9.50
2022-12-25T11:10:06.193Z,9.50
2022-12-25T11:12:38.790Z,9.50
2022-12-25T11:15:37.460Z,9.50
2022-12-25T11:18:18.885Z,9.60
2022-12-25T11:20:51.894Z,9.60
2022-12-25T11:23:22.095Z,9.70
2022-12-25T11:25:58.202Z,9.70
2022-12-25T11:28:27.705Z,9.80
2022-12-25T11:31:03.709Z,9.90
2022-12-25T11:33:38.391Z,10.00
2022-12-25T11:36:19.441Z,10.00
2022-12-25T11:38:47.861Z,10.00
2022-12-25T11:41:22.429Z,10.00
2022-12-25T11:43:56.201Z,10.00
2022-12-25T11:46:31.918Z,9.90
2022-12-25T11:49:08.310Z,9.80
2022-12-25T11:51:40.204Z,9.80
2022-12-25T11:54:20.951Z,9.80
2022-12-25T11:56:49.868Z,9.80
2022-12-25T11:59:25.947Z,9.70
2022-12-25T12:02:00.991Z,9.70
2022-12-25T12:04:42.005Z,9.70
2022-12-25T12:07:19.975Z,9.70
2022-12-25T12:09:58.256Z,9.70
2022-12-25T12:12:35.688Z,9.70
2022-12-25T12:15:17.621Z,9.70
2022-12-25T12:17:47.136Z,9.70
2022-12-25T12:20:29.394Z,9.70
2022-12-25T12:22:58.912Z,9.70
2022-12-25T12:25:28.523Z,9.70
2022-12-25T12:28:05.287Z,9.60
2022-12-25T12:30:36.246Z,9.60
2022-12-25T12:33:08.790Z,9.70
2022-12-25T12:35:40.333Z,9.60
2022-12-25T12:38:16.261Z,9.70
2022-12-25T12:40:54.254Z,9.70
2022-12-25T12:43:33.540Z,9.70
2022-12-25T12:46:08.185Z,9.70
2022-12-25T12:48:44.087Z,9.70
2022-12-25T12:51:15.011Z,9.80
2022-12-25T12:53:44.474Z,9.80
2022-12-25T12:56:16.682Z,9.80
2022-12-25T12:58:50.563Z,9.80
2022-12-25T13:01:46.888Z,9.80
2022-12-25T13:04:54.525Z,9.80
2022-12-25T13:07:46.450Z,9.80
2022-12-25T13:10:26.019Z,9.80
2022-12-25T13:12:58.318Z,9.80
2022-12-25T13:15:31.233Z,9.80
2022-12-25T13:18:04.116Z,9.70
2022-12-25T13:20:45.550Z,9.70
2022-12-25T13:23:26.964Z,9.70
2022-12-25T13:25:56.290Z,9.70
2022-12-25T13:28:30.138Z,9.70
2022-12-25T13:31:08.058Z,9.70
2022-12-25T13:33:36.373Z,9.70
2022-12-25T13:36:11.028Z,9.60
2022-12-25T13:38:44.693Z,9.60
2022-12-25T13:41:35.056Z,9.60
2022-12-25T13:44:04.249Z,9.70
2022-12-25T13:46:32.130Z,9.70
2022-12-25T13:49:01.764Z,9.60
2022-12-25T13:51:31.014Z,9.60
2022-12-25T13:54:06.451Z,9.60
2022-12-25T13:56:36.003Z,9.60
2022-12-25T13:59:05.946Z,9.60
2022-12-25T14:01:34.900Z,9.60
2022-12-25T14:04:04.268Z,9.60
2022-12-25T14:06:33.787Z,9.60
2022-12-25T14:09:02.056Z,9.60
2022-12-25T14:11:32.231Z,9.60
2022-12-25T14:14:06.922Z,9.60
2022-12-25T14:16:35.772Z,9.60
2022-12-25T14:19:04.460Z,9.70
2022-12-25T14:21:38.949Z,9.70
2022-12-25T14:24:15.100Z,9.70
2022-12-25T14:26:43.424Z,9.70
2022-12-25T14:29:18.191Z,9.70
2022-12-25T14:31:48.668Z,9.70
2022-12-25T14:34:21.601Z,9.70
2022-12-25T14:36:53.361Z,9.70
2022-12-25T14:39:32.429Z,9.70
2022-12-25T14:42:03.729Z,9.70
2022-12-25T14:44:36.819Z,9.70
2022-12-25T14:47:18.653Z,9.70
2022-12-25T14:49:47.549Z,9.70
2022-12-25T14:52:22.171Z,9.70
2022-12-25T14:54:56.433Z,9.70
2022-12-25T14:57:31.328Z,9.70
2022-12-25T15:00:06.787Z,9.70
2022-12-25T15:02:47.129Z,9.70
2022-12-25T15:05:34.585Z,9.70
2022-12-25T15:08:24.481Z,9.70
2022-12-25T15:11:02.208Z,9.70
2022-12-25T15:13:32.184Z,9.60
2022-12-25T15:16:09.200Z,9.60
2022-12-25T15:18:41.973Z,9.60
2022-12-25T15:21:18.326Z,9.60
2022-12-25T15:23:48.130Z,9.60
2022-12-25T15:26:17.242Z,9.60
2022-12-25T15:28:45.122Z,9.60
2022-12-25T15:31:22.968Z,9.60
2022-12-25T15:33:51.133Z,9.60
2022-12-25T15:36:19.249Z,9.60
2022-12-25T15:38:48.638Z,9.60
2022-12-25T15:41:34.130Z,9.70
2022-12-25T15:44:02.435Z,9.60
2022-12-25T15:46:30.624Z,9.60
2022-12-25T15:48:58.829Z,9.60
2022-12-25T15:51:27.600Z,9.60
2022-12-25T15:53:56.819Z,9.60
2022-12-25T15:56:25.129Z,9.70
2022-12-25T15:58:53.271Z,9.60
2022-12-25T16:01:22.360Z,9.70
2022-12-25T16:03:51.118Z,9.60
2022-12-25T16:06:19.949Z,9.60
2022-12-25T16:08:47.805Z,9.60
2022-12-25T16:11:17.009Z,9.50
2022-12-25T16:13:44.901Z,9.50
2022-12-25T16:16:13.018Z,9.50
2022-12-25T16:18:47.046Z,9.40
2022-12-25T16:21:19.987Z,9.50
2022-12-25T16:23:48.153Z,9.50
2022-12-25T16:26:17.792Z,9.50
2022-12-25T16:28:45.727Z,9.50
2022-12-25T16:31:13.679Z,9.50
2022-12-25T16:33:41.967Z,9.50
2022-12-25T16:36:10.298Z,9.60
2022-12-25T16:38:38.342Z,9.50
2022-12-25T16:41:06.673Z,9.50
2022-12-25T16:43:36.458Z,9.50
2022-12-25T16:46:10.550Z,9.60
2022-12-25T16:48:38.499Z,9.60
2022-12-25T16:51:10.431Z,9.60
2022-12-25T16:53:38.468Z,9.60
2022-12-25T16:56:08.115Z,9.60
2022-12-25T16:58:37.911Z,9.60
2022-12-25T17:01:08.396Z,9.60
2022-12-25T17:03:36.923Z,9.60
2022-12-25T17:06:13.189Z,9.60
2022-12-25T17:08:41.181Z,9.60
2022-12-25T17:11:09.234Z,9.60
2022-12-25T17:13:38.495Z,9.60
2022-12-25T17:16:15.287Z,9.60
2022-12-25T17:18:43.392Z,9.60
2022-12-25T17:21:11.798Z,9.60
2022-12-25T17:23:40.075Z,9.60
2022-12-25T17:26:08.284Z,9.60
2022-12-25T17:28:37.840Z,9.70
2022-12-25T17:31:08.384Z,9.60
2022-12-25T17:33:38.083Z,9.70
2022-12-25T17:36:09.459Z,9.70
2022-12-25T17:38:38.137Z,9.70
2022-12-25T17:41:09.711Z,9.70
2022-12-25T17:43:41.131Z,9.70
2022-12-25T17:46:13.255Z,9.70
2022-12-25T17:48:41.313Z,9.70
2022-12-25T17:51:12.508Z,9.60
2022-12-25T17:53:42.881Z,9.60
2022-12-25T17:56:13.100Z,9.60
2022-12-25T17:58:43.297Z,9.60
2022-12-25T18:01:13.980Z,9.60
2022-12-25T18:03:43.097Z,9.60
2022-12-25T18:06:15.934Z,9.60
2022-12-25T18:08:45.651Z,9.50
2022-12-25T18:11:17.542Z,9.50
2022-12-25T18:13:49.909Z,9.50
2022-12-25T18:16:19.109Z,9.50
2022-12-25T18:18:51.957Z,9.40
2022-12-25T18:21:22.245Z,9.40
2022-12-25T18:23:51.388Z,9.40
2022-12-25T18:26:21.250Z,9.40
2022-12-25T18:28:51.208Z,9.40
2022-12-25T18:31:22.745Z,9.40
2022-12-25T18:33:52.205Z,9.30
2022-12-25T18:36:22.827Z,9.30
2022-12-25T18:38:52.523Z,9.30
2022-12-25T18:41:22.234Z,9.30
2022-12-25T18:43:55.630Z,9.30
2022-12-25T18:46:26.229Z,9.40
2022-12-25T18:48:54.807Z,9.30
2022-12-25T18:51:23.004Z,9.40
2022-12-25T18:53:51.500Z,9.40
2022-12-25T18:56:21.600Z,9.50
2022-12-25T18:58:51.037Z,9.50
2022-12-25T19:01:22.729Z,9.60
2022-12-25T19:03:53.134Z,9.60
2022-12-25T19:06:27.038Z,9.70
2022-12-25T19:08:56.351Z,9.70
2022-12-25T19:11:24.648Z,9.70
2022-12-25T19:13:53.898Z,9.80
2022-12-25T19:16:21.887Z,9.70
2022-12-25T19:18:49.835Z,9.70
2022-12-25T19:21:17.718Z,9.80
2022-12-25T19:23:46.113Z,9.70
2022-12-25T19:26:14.092Z,9.70
2022-12-25T19:28:42.407Z,9.70
2022-12-25T19:31:11.766Z,9.70
2022-12-25T19:33:42.689Z,9.70
2022-12-25T19:36:14.381Z,9.70
2022-12-25T19:38:43.302Z,9.70
2022-12-25T19:41:14.752Z,9.70
2022-12-25T19:43:45.619Z,9.60
2022-12-25T19:46:19.621Z,9.70
2022-12-25T19:48:47.686Z,9.60
2022-12-25T19:51:18.408Z,9.60
2022-12-25T19:53:47.305Z,9.60
2022-12-25T19:56:16.103Z,9.70
2022-12-25T19:58:46.119Z,9.60
2022-12-25T20:01:18.794Z,9.60
2022-12-25T20:03:48.606Z,9.60
2022-12-25T20:06:21.826Z,9.60
2022-12-25T20:08:53.314Z,9.60
2022-12-25T20:11:23.372Z,9.60
2022-12-25T20:13:51.300Z,9.60
2022-12-25T20:16:20.662Z,9.60
2022-12-25T20:18:48.604Z,9.60
2022-12-25T20:21:19.342Z,9.60
2022-12-25T20:23:50.018Z,9.70
2022-12-25T20:26:20.888Z,9.70
2022-12-25T20:28:48.891Z,9.70
2022-12-25T20:31:21.422Z,9.70
2022-12-25T20:33:50.565Z,9.70
2022-12-25T20:36:19.407Z,9.70
2022-12-25T20:38:47.343Z,9.70
2022-12-25T20:41:29.070Z,9.70
2022-12-25T20:43:58.468Z,9.70
2022-12-25T20:46:28.394Z,9.70
2022-12-25T20:48:56.419Z,9.80
2022-12-25T20:51:27.330Z,9.80
2022-12-25T20:53:55.997Z,9.80
2022-12-25T20:56:26.227Z,9.80
2022-12-25T20:58:56.060Z,9.90
2022-12-25T21:01:24.561Z,9.90
2022-12-25T21:03:54.906Z,9.80
2022-12-25T21:06:23.783Z,9.80
2022-12-25T21:08:51.743Z,9.80
2022-12-25T21:11:21.199Z,9.80
2022-12-25T21:13:49.241Z,9.80
2022-12-25T21:16:21.476Z,9.80
2022-12-25T21:18:50.950Z,9.80
2022-12-25T21:21:21.170Z,9.80
2022-12-25T21:23:49.087Z,9.80
2022-12-25T21:26:20.487Z,9.80
2022-12-25T21:28:48.810Z,9.80
2022-12-25T21:31:17.884Z,9.80
2022-12-25T21:33:51.607Z,9.80
2022-12-25T21:36:25.182Z,9.80
2022-12-25T21:38:56.400Z,9.80
2022-12-25T21:41:25.119Z,9.80
2022-12-25T21:43:53.457Z,9.80
2022-12-25T21:46:21.705Z,9.80
2022-12-25T21:48:50.076Z,9.70
2022-12-25T21:51:40.979Z,9.70
2022-12-25T21:54:10.175Z,9.70
2022-12-25T21:56:44.656Z,9.70
2022-12-25T21:59:16.540Z,9.70
2022-12-25T22:01:46.207Z,9.70
2022-12-25T22:04:16.614Z,9.70
2022-12-25T22:07:05.918Z,9.70
2022-12-25T22:09:34.340Z,9.70
2022-12-25T22:12:20.389Z,9.70
2022-12-25T22:14:56.634Z,9.70
2022-12-25T22:17:45.250Z,9.70
2022-12-25T22:20:16.618Z,9.70
2022-12-25T22:22:46.472Z,9.70
2022-12-25T22:25:15.654Z,9.70
2022-12-25T22:27:46.392Z,9.70
2022-12-25T22:30:17.295Z,9.70
2022-12-25T22:32:47.068Z,9.70
2022-12-25T22:35:17.519Z,9.70
2022-12-25T22:37:47.089Z,9.60
2022-12-25T22:40:19.131Z,9.60
2022-12-25T22:42:47.298Z,9.60
2022-12-25T22:45:15.818Z,9.60
2022-12-25T22:47:43.701Z,9.60
2022-12-25T22:50:16.161Z,9.60
2022-12-25T22:52:47.050Z,9.50
2022-12-25T22:55:19.064Z,9.60
2022-12-25T22:57:47.077Z,9.60
2022-12-25T23:00:15.679Z,9.60
2022-12-25T23:02:43.808Z,9.60
2022-12-25T23:05:11.969Z,9.60
2022-12-25T23:07:40.338Z,9.70
2022-12-25T23:10:11.791Z,9.70
2022-12-25T23:12:57.511Z,9.70
2022-12-25T23:15:27.497Z,9.80
2022-12-25T23:18:13.005Z,9.80
2022-12-25T23:21:13.011Z,9.80
2022-12-25T23:23:58.262Z,9.80
2022-12-25T23:26:27.476Z,9.90
2022-12-25T23:29:14.585Z,9.80
2022-12-25T23:31:43.532Z,9.90
2022-12-25T23:34:11.847Z,9.90
2022-12-25T23:36:39.856Z,10.00
2022-12-25T23:39:10.460Z,10.00
2022-12-25T23:41:41.348Z,10.00
2022-12-25T23:44:11.520Z,10.00
2022-12-25T23:46:40.283Z,10.10
2022-12-25T23:49:08.678Z,10.10
2022-12-25T23:51:37.161Z,10.10
2022-12-25T23:54:06.173Z,10.20
2022-12-25T23:56:34.679Z,10.10
2022-12-25T23:59:05.812Z,10.10
